createdAt,value
2018-07-28T00:00:41.040Z,11.70
2018-07-28T00:03:11.697Z,10.73
2018-07-28T00:05:42.413Z,12.77
2018-07-28T00:08:12.989Z,13.07
2018-07-28T00:10:43.191Z,17.03
2018-07-28T00:13:13.674Z,15.20
2018-07-28T00:15:43.981Z,16.83
2018-07-28T00:18:15.683Z,17.10
2018-07-28T00:20:46.228Z,16.03
2018-07-28T00:23:16.915Z,15.60
2018-07-28T00:25:52.248Z,15.97
2018-07-28T00:28:22.893Z,16.07
2018-07-28T00:30:53.575Z,14.63
2018-07-28T00:33:25.349Z,13.73
2018-07-28T00:35:56.478Z,15.00
2018-07-28T00:38:27.943Z,13.50
2018-07-28T00:40:58.530Z,13.37
2018-07-28T00:43:29.000Z,12.73
2018-07-28T00:45:59.594Z,11.97
2018-07-28T00:48:30.166Z,13.10
2018-07-28T00:51:00.623Z,11.73
2018-07-28T00:53:31.362Z,12.80
2018-07-28T00:56:01.873Z,11.83
2018-07-28T00:58:32.417Z,11.93
2018-07-28T01:01:02.842Z,11.40
2018-07-28T01:03:34.213Z,12.57
2018-07-28T01:06:05.299Z,12.20
2018-07-28T01:08:35.750Z,13.23
2018-07-28T01:11:06.402Z,13.93
2018-07-28T01:13:37.087Z,13.47
2018-07-28T01:16:07.653Z,13.50
2018-07-28T01:18:38.331Z,13.50
2018-07-28T01:21:10.516Z,14.43
2018-07-28T01:23:41.240Z,12.00
2018-07-28T01:26:11.831Z,12.30
2018-07-28T01:28:42.559Z,12.87
2018-07-28T01:31:13.435Z,13.03
2018-07-28T01:33:44.963Z,14.30
2018-07-28T01:36:15.462Z,13.30
2018-07-28T01:38:46.916Z,13.90
2018-07-28T01:41:17.421Z,14.27
2018-07-28T01:43:47.889Z,14.43
2018-07-28T01:46:18.376Z,13.67
2018-07-28T01:48:49.040Z,14.60
2018-07-28T01:51:20.165Z,12.40
2018-07-28T01:53:51.737Z,12.63
2018-07-28T01:56:22.291Z,13.17
2018-07-28T01:58:52.892Z,13.73
2018-07-28T02:01:23.515Z,14.37
2018-07-28T02:03:54.273Z,12.30
2018-07-28T02:06:24.900Z,14.20
2018-07-28T02:08:55.581Z,14.70
2018-07-28T02:11:26.742Z,15.13
2018-07-28T02:13:57.388Z,15.20
2018-07-28T02:16:28.057Z,15.80
2018-07-28T02:18:58.514Z,14.47
2018-07-28T02:21:28.969Z,14.73
2018-07-28T02:23:59.567Z,16.30
2018-07-28T02:26:30.217Z,15.53
2018-07-28T02:29:02.378Z,15.10
2018-07-28T02:31:33.758Z,13.93
2018-07-28T02:34:04.575Z,13.23
2018-07-28T02:36:35.140Z,12.40
2018-07-28T02:39:07.285Z,14.70
2018-07-28T02:41:37.757Z,15.10
2018-07-28T02:44:08.262Z,12.80
2018-07-28T02:46:39.682Z,11.90
2018-07-28T02:49:10.369Z,12.30
2018-07-28T02:51:40.906Z,12.63
2018-07-28T02:54:11.518Z,13.87
2018-07-28T02:56:42.056Z,13.37
2018-07-28T02:59:12.584Z,13.57
2018-07-28T03:01:42.954Z,13.90
2018-07-28T03:04:13.606Z,14.67
2018-07-28T03:06:44.627Z,13.70
2018-07-28T03:09:15.887Z,13.63
2018-07-28T03:11:46.370Z,14.50
2018-07-28T03:14:17.033Z,12.83
2018-07-28T03:16:47.566Z,14.20
2018-07-28T03:19:18.141Z,14.47
2018-07-28T03:21:48.701Z,15.23
2018-07-28T03:24:19.480Z,16.40
2018-07-28T03:26:50.635Z,15.67
2018-07-28T03:29:22.105Z,14.53
2018-07-28T03:31:52.754Z,15.57
2018-07-28T03:34:23.295Z,14.87
2018-07-28T03:36:53.258Z,14.77
2018-07-28T03:39:23.737Z,13.37
2018-07-28T03:41:54.303Z,13.47
2018-07-28T03:44:24.880Z,13.27
2018-07-28T03:46:56.028Z,13.23
2018-07-28T03:49:27.269Z,12.60
2018-07-28T03:51:57.745Z,13.03
2018-07-28T03:54:28.251Z,12.37
2018-07-28T03:56:58.727Z,14.20
2018-07-28T03:59:29.295Z,14.57
2018-07-28T04:02:00.182Z,14.47
2018-07-28T04:04:30.606Z,14.63
2018-07-28T04:07:02.031Z,14.83
2018-07-28T04:09:32.996Z,14.33
2018-07-28T04:12:03.436Z,15.73
2018-07-28T04:14:33.952Z,15.33
2018-07-28T04:17:04.452Z,15.80
2018-07-28T04:19:35.720Z,16.07
2018-07-28T04:22:06.257Z,15.33
2018-07-28T04:24:36.980Z,14.47
2018-07-28T04:27:08.338Z,14.93
2018-07-28T04:29:38.978Z,14.27
2018-07-28T04:32:09.667Z,13.77
2018-07-28T04:34:40.393Z,14.37
2018-07-28T04:37:11.043Z,14.00
2018-07-28T04:39:41.469Z,14.73
2018-07-28T04:42:12.654Z,15.83
2018-07-28T04:44:44.366Z,14.43
2018-07-28T04:47:16.074Z,15.67
2018-07-28T04:49:46.590Z,14.27
2018-07-28T04:52:17.407Z,14.33
2018-07-28T04:54:48.003Z,13.63
2018-07-28T04:57:18.534Z,13.87
2018-07-28T04:59:48.925Z,12.87
2018-07-28T05:02:19.630Z,13.57
2018-07-28T05:04:50.855Z,13.80
2018-07-28T05:07:21.922Z,14.00
2018-07-28T05:09:52.058Z,13.77
2018-07-28T05:12:22.538Z,13.83
2018-07-28T05:14:53.035Z,15.10
2018-07-28T05:17:23.602Z,14.73
2018-07-28T05:19:54.734Z,15.63
2018-07-28T05:22:27.493Z,15.00
2018-07-28T05:24:59.005Z,14.70
2018-07-28T05:27:30.010Z,14.50
2018-07-28T05:30:00.718Z,14.33
2018-07-28T05:32:31.155Z,13.93
2018-07-28T05:35:01.279Z,14.17
2018-07-28T05:37:32.049Z,14.17
2018-07-28T05:40:03.136Z,13.73
2018-07-28T05:42:34.132Z,13.50
2018-07-28T05:45:06.107Z,13.27
2018-07-28T05:47:37.175Z,13.70
2018-07-28T05:50:09.655Z,12.70
2018-07-28T05:52:40.482Z,13.00
2018-07-28T05:55:11.363Z,12.40
2018-07-28T05:57:41.877Z,12.93
2018-07-28T06:00:13.290Z,11.90
2018-07-28T06:02:47.189Z,13.20
2018-07-28T06:05:19.107Z,12.00
2018-07-28T06:07:50.354Z,12.00
2018-07-28T06:10:21.783Z,12.33
2018-07-28T06:12:52.742Z,11.93
2018-07-28T06:15:23.500Z,10.90
2018-07-28T06:17:54.796Z,12.40
2018-07-28T06:20:26.305Z,12.80
2018-07-28T06:22:57.222Z,14.57
2018-07-28T06:25:28.444Z,18.40
2018-07-28T06:28:00.125Z,19.43
2018-07-28T06:30:31.330Z,21.43
2018-07-28T06:33:02.215Z,21.17
2018-07-28T06:35:34.394Z,20.87
2018-07-28T06:38:05.503Z,21.80
2018-07-28T06:40:36.873Z,20.70
2018-07-28T06:43:09.737Z,20.87
2018-07-28T06:45:42.622Z,19.20
2018-07-28T06:48:15.083Z,18.87
2018-07-28T06:50:46.999Z,18.50
2018-07-28T06:53:18.524Z,18.93
2018-07-28T06:55:49.749Z,18.20
2018-07-28T06:58:20.915Z,17.53
2018-07-28T07:00:53.460Z,16.53
2018-07-28T07:03:24.998Z,21.33
2018-07-28T07:05:55.420Z,20.13
2018-07-28T07:08:27.437Z,17.97
2018-07-28T07:10:58.218Z,18.53
2018-07-28T07:13:30.224Z,21.57
2018-07-28T07:16:01.789Z,19.33
2018-07-28T07:18:34.560Z,19.57
2018-07-28T07:21:06.577Z,20.77
2018-07-28T07:23:37.411Z,21.33
2018-07-28T07:26:09.140Z,22.97
2018-07-28T07:28:39.970Z,21.73
2018-07-28T07:31:11.237Z,23.03
2018-07-28T07:33:43.561Z,23.43
2018-07-28T07:36:14.567Z,22.93
2018-07-28T07:38:46.123Z,22.10
2018-07-28T07:41:17.478Z,19.27
2018-07-28T07:43:48.206Z,19.20
2018-07-28T07:46:18.952Z,17.70
2018-07-28T07:48:50.191Z,18.10
2018-07-28T07:51:21.994Z,17.77
2018-07-28T07:53:53.258Z,18.80
2018-07-28T07:56:24.749Z,18.77
2018-07-28T07:58:55.966Z,17.13
2018-07-28T08:01:27.020Z,16.50
2018-07-28T08:03:57.645Z,18.60
2018-07-28T08:06:28.484Z,19.00
2018-07-28T08:08:59.384Z,19.33
2018-07-28T08:11:30.813Z,18.07
2018-07-28T08:14:02.209Z,16.37
2018-07-28T08:16:32.804Z,16.13
2018-07-28T08:19:03.180Z,16.20
2018-07-28T08:21:33.721Z,16.53
2018-07-28T08:24:04.461Z,15.23
2018-07-28T08:26:36.388Z,15.30
2018-07-28T08:29:08.773Z,14.87
2018-07-28T08:31:40.339Z,15.17
2018-07-28T08:34:11.543Z,15.23
2018-07-28T08:36:46.148Z,15.27
2018-07-28T08:39:19.274Z,13.73
2018-07-28T08:41:50.995Z,14.07
2018-07-28T08:44:22.607Z,13.10
2018-07-28T08:46:55.332Z,14.23
2018-07-28T08:49:25.862Z,14.00
2018-07-28T08:51:56.833Z,14.00
2018-07-28T08:54:27.370Z,12.73
2018-07-28T08:56:57.998Z,13.00
2018-07-28T08:59:28.638Z,11.57
2018-07-28T09:02:00.854Z,12.27
2018-07-28T09:04:33.435Z,9.73
2018-07-28T09:07:04.831Z,11.50
2018-07-28T09:09:35.759Z,11.13
2018-07-28T09:12:06.451Z,10.50
2018-07-28T09:14:38.062Z,11.60
2018-07-28T09:17:09.045Z,8.90
2018-07-28T09:19:39.781Z,8.00
2018-07-28T09:22:12.432Z,8.47
2018-07-28T09:24:43.991Z,7.77
2018-07-28T09:27:14.773Z,6.87
2018-07-28T09:29:45.923Z,7.33
2018-07-28T09:32:20.565Z,7.83
2018-07-28T09:34:55.400Z,7.70
2018-07-28T09:37:28.616Z,7.53
2018-07-28T09:40:00.841Z,7.87
2018-07-28T09:42:31.654Z,7.57
2018-07-28T09:45:02.890Z,7.93
2018-07-28T09:47:34.226Z,8.83
2018-07-28T09:50:16.364Z,8.70
2018-07-28T09:52:51.001Z,7.47
2018-07-28T09:55:22.664Z,8.07
2018-07-28T09:57:54.355Z,8.20
2018-07-28T10:00:32.165Z,7.90
2018-07-28T10:03:05.723Z,7.57
2018-07-28T10:05:37.737Z,7.50
2018-07-28T10:08:10.670Z,7.90
2018-07-28T10:10:43.622Z,7.80
2018-07-28T10:13:15.912Z,7.33
2018-07-28T10:15:49.141Z,7.43
2018-07-28T10:18:22.799Z,7.72
2018-07-28T10:20:57.032Z,7.25
2018-07-28T10:23:29.038Z,7.20
2018-07-28T10:26:02.129Z,7.00
2018-07-28T10:28:38.015Z,7.15
2018-07-28T10:31:12.989Z,7.05
2018-07-28T10:33:45.253Z,6.90
2018-07-28T10:36:17.509Z,6.65
2018-07-28T10:38:49.040Z,6.50
2018-07-28T10:41:20.278Z,6.97
2018-07-28T10:43:51.544Z,6.72
2018-07-28T10:46:25.589Z,7.00
2018-07-28T10:48:56.927Z,7.08
2018-07-28T10:51:27.824Z,6.90
2018-07-28T10:53:58.760Z,7.28
2018-07-28T10:56:29.860Z,7.10
2018-07-28T10:59:00.533Z,6.90
2018-07-28T11:01:32.545Z,7.20
2018-07-28T11:04:04.575Z,7.47
2018-07-28T11:06:35.263Z,7.07
2018-07-28T11:09:09.026Z,6.67
2018-07-28T11:11:39.846Z,7.30
2018-07-28T11:14:10.595Z,6.67
2018-07-28T11:16:41.460Z,7.30
2018-07-28T11:19:11.686Z,6.60
2018-07-28T11:21:44.420Z,7.47
2018-07-28T11:24:15.641Z,8.07
2018-07-28T11:26:46.543Z,7.17
2018-07-28T11:29:17.357Z,6.67
2018-07-28T11:32:05.034Z,7.00
2018-07-28T11:34:52.105Z,7.17
2018-07-28T11:38:38.063Z,7.30
2018-07-28T11:41:24.945Z,7.00
2018-07-28T11:45:16.981Z,7.03
2018-07-28T11:47:47.766Z,6.50
2018-07-28T11:50:20.152Z,7.37
2018-07-28T11:52:52.100Z,6.40
2018-07-28T11:55:23.251Z,6.30
2018-07-28T11:57:53.813Z,7.30
2018-07-28T12:00:25.444Z,6.50
2018-07-28T12:02:56.032Z,6.53
2018-07-28T12:05:27.728Z,6.77
2018-07-28T12:08:01.240Z,6.28
2018-07-28T12:10:32.655Z,6.55
2018-07-28T12:13:04.721Z,6.67
2018-07-28T12:15:36.398Z,6.28
2018-07-28T12:18:09.478Z,6.42
2018-07-28T12:20:40.721Z,5.72
2018-07-28T12:23:14.028Z,6.08
2018-07-28T12:25:50.213Z,6.30
2018-07-28T12:28:21.573Z,6.53
2018-07-28T12:30:52.388Z,5.90
2018-07-28T12:33:23.802Z,5.83
2018-07-28T12:35:55.037Z,5.62
2018-07-28T12:38:27.102Z,5.90
2018-07-28T12:40:59.000Z,6.55
2018-07-28T12:43:30.148Z,5.58
2018-07-28T12:46:00.819Z,6.20
2018-07-28T12:48:32.076Z,6.30
2018-07-28T12:51:03.101Z,6.13
2018-07-28T12:53:34.749Z,6.03
2018-07-28T12:56:06.665Z,6.33
2018-07-28T12:58:38.471Z,5.63
2018-07-28T13:01:09.536Z,6.20
2018-07-28T13:03:40.930Z,5.87
2018-07-28T13:06:11.901Z,5.80
2018-07-28T13:08:43.140Z,6.37
2018-07-28T13:11:16.648Z,6.15
2018-07-28T13:13:49.729Z,6.65
2018-07-28T13:16:27.101Z,9.28
2018-07-28T13:18:58.009Z,6.53
2018-07-28T13:21:32.290Z,8.35
2018-07-28T13:24:06.266Z,6.33
2018-07-28T13:26:37.693Z,9.58
2018-07-28T13:29:09.118Z,6.00
2018-07-28T13:31:42.135Z,6.62
2018-07-28T13:34:13.084Z,6.67
2018-07-28T13:36:45.520Z,6.10
2018-07-28T13:39:17.209Z,5.95
2018-07-28T13:41:48.121Z,5.92
2018-07-28T13:44:19.249Z,6.55
2018-07-28T13:46:51.673Z,6.03
2018-07-28T13:49:22.641Z,6.27
2018-07-28T13:51:53.371Z,6.17
2018-07-28T13:54:24.183Z,6.42
2018-07-28T13:56:55.280Z,5.92
2018-07-28T13:59:26.158Z,6.15
2018-07-28T14:01:57.731Z,6.30
2018-07-28T14:04:30.183Z,5.97
2018-07-28T14:07:01.258Z,6.42
2018-07-28T14:09:32.791Z,6.10
2018-07-28T14:12:03.965Z,6.15
2018-07-28T14:14:35.105Z,6.03
2018-07-28T14:17:06.013Z,6.55
2018-07-28T14:19:36.590Z,6.25
2018-07-28T14:22:09.020Z,6.00
2018-07-28T14:24:40.351Z,5.63
2018-07-28T14:27:11.591Z,6.77
2018-07-28T14:29:42.942Z,5.83
2018-07-28T14:32:13.944Z,6.23
2018-07-28T14:34:44.937Z,5.73
2018-07-28T14:37:16.515Z,7.60
2018-07-28T14:39:49.984Z,5.83
2018-07-28T14:42:21.392Z,6.00
2018-07-28T14:44:52.068Z,6.97
2018-07-28T14:47:23.565Z,6.77
2018-07-28T14:49:54.428Z,6.70
2018-07-28T14:52:28.000Z,8.03
2018-07-28T14:55:01.085Z,6.17
2018-07-28T14:57:34.074Z,5.80
2018-07-28T15:00:04.408Z,6.07
2018-07-28T15:02:35.334Z,5.80
2018-07-28T15:05:06.905Z,5.80
2018-07-28T15:07:39.017Z,5.67
2018-07-28T15:10:09.543Z,5.73
2018-07-28T15:12:40.980Z,6.27
2018-07-28T15:15:15.383Z,5.30
2018-07-28T15:17:46.350Z,5.50
2018-07-28T15:20:18.169Z,5.47
2018-07-28T15:22:49.021Z,6.10
2018-07-28T15:25:20.667Z,5.80
2018-07-28T15:27:50.967Z,6.00
2018-07-28T15:30:23.783Z,5.77
2018-07-28T15:32:55.162Z,5.80
2018-07-28T15:35:25.726Z,5.73
2018-07-28T15:37:55.991Z,5.77
2018-07-28T15:40:26.813Z,5.40
2018-07-28T15:42:57.665Z,5.67
2018-07-28T15:45:29.447Z,5.60
2018-07-28T15:48:00.802Z,5.70
2018-07-28T15:50:32.170Z,5.57
2018-07-28T15:53:03.747Z,5.70
2018-07-28T15:55:34.595Z,5.70
2018-07-28T15:58:05.143Z,5.83
2018-07-28T16:00:35.709Z,5.80
2018-07-28T16:03:06.354Z,5.87
2018-07-28T16:05:37.313Z,6.40
2018-07-28T16:08:08.837Z,5.73
2018-07-28T16:10:39.478Z,5.53
2018-07-28T16:13:09.973Z,5.77
2018-07-28T16:15:40.608Z,5.40
2018-07-28T16:18:11.374Z,5.57
2018-07-28T16:20:42.317Z,6.20
2018-07-28T16:23:13.231Z,5.33
2018-07-28T16:25:44.495Z,5.67
2018-07-28T16:28:16.247Z,5.87
2018-07-28T16:30:47.358Z,5.63
2018-07-28T16:33:18.505Z,5.97
2018-07-28T16:35:49.554Z,5.47
2018-07-28T16:38:20.370Z,5.47
2018-07-28T16:40:50.974Z,5.03
2018-07-28T16:43:21.589Z,5.27
2018-07-28T16:45:55.439Z,5.60
2018-07-28T16:48:27.921Z,4.90
2018-07-28T16:50:58.916Z,4.87
2018-07-28T16:53:29.854Z,4.87
2018-07-28T16:56:01.780Z,4.50
2018-07-28T16:58:31.991Z,4.90
2018-07-28T17:01:02.811Z,5.17
2018-07-28T17:03:35.707Z,4.90
2018-07-28T17:06:06.199Z,5.50
2018-07-28T17:08:37.347Z,4.70
2018-07-28T17:11:08.656Z,5.20
2018-07-28T17:13:39.753Z,4.70
2018-07-28T17:16:12.703Z,5.23
2018-07-28T17:18:44.467Z,5.23
2018-07-28T17:21:16.006Z,4.90
2018-07-28T17:23:46.986Z,5.40
2018-07-28T17:26:17.662Z,5.10
2018-07-28T17:28:48.708Z,6.63
2018-07-28T17:31:19.440Z,5.23
2018-07-28T17:33:50.299Z,5.60
2018-07-28T17:36:20.974Z,5.30
2018-07-28T17:38:53.970Z,4.80
2018-07-28T17:41:24.965Z,5.13
2018-07-28T17:43:56.575Z,5.33
2018-07-28T17:46:28.305Z,4.80
2018-07-28T17:48:59.250Z,5.13
2018-07-28T17:51:31.342Z,4.80
2018-07-28T17:54:02.178Z,4.43
2018-07-28T17:56:34.904Z,4.93
2018-07-28T17:59:07.149Z,5.27
2018-07-28T18:01:38.115Z,5.30
2018-07-28T18:04:08.854Z,5.27
2018-07-28T18:06:39.676Z,5.20
2018-07-28T18:09:13.066Z,5.63
2018-07-28T18:11:44.773Z,5.43
2018-07-28T18:14:18.094Z,4.97
2018-07-28T18:16:48.678Z,5.53
2018-07-28T18:19:19.498Z,4.83
2018-07-28T18:21:49.889Z,5.60
2018-07-28T18:24:20.746Z,5.23
2018-07-28T18:26:51.825Z,5.50
2018-07-28T18:29:22.444Z,5.40
2018-07-28T18:31:54.204Z,5.90
2018-07-28T18:34:24.888Z,5.70
2018-07-28T18:36:55.611Z,5.57
2018-07-28T18:39:26.330Z,5.47
2018-07-28T18:41:57.018Z,6.20
2018-07-28T18:44:28.530Z,5.83
2018-07-28T18:46:59.163Z,6.03
2018-07-28T18:49:30.732Z,6.10
2018-07-28T18:52:01.872Z,5.67
2018-07-28T18:54:33.183Z,6.07
2018-07-28T18:57:03.837Z,5.90
2018-07-28T18:59:34.574Z,5.73
2018-07-28T19:02:05.483Z,5.77
2018-07-28T19:04:36.647Z,5.87
2018-07-28T19:07:07.738Z,5.57
2018-07-28T19:09:44.531Z,6.10
2018-07-28T19:12:15.502Z,5.63
2018-07-28T19:14:46.508Z,5.80
2018-07-28T19:17:17.475Z,5.53
2018-07-28T19:19:48.268Z,5.70
2018-07-28T19:22:24.644Z,5.83
2018-07-28T19:24:56.051Z,5.33
2018-07-28T19:27:26.978Z,6.03
2018-07-28T19:29:58.082Z,5.63
2018-07-28T19:32:29.554Z,5.60
2018-07-28T19:35:00.319Z,5.43
2018-07-28T19:37:32.776Z,5.80
2018-07-28T19:40:04.511Z,5.67
2018-07-28T19:42:42.068Z,5.27
2018-07-28T19:45:12.986Z,5.77
2018-07-28T19:47:43.885Z,5.90
2018-07-28T19:50:14.622Z,6.30
2018-07-28T19:52:45.312Z,5.60
2018-07-28T19:55:17.280Z,5.40
2018-07-28T19:57:48.727Z,5.53
2018-07-28T20:00:19.490Z,5.80
2018-07-28T20:02:50.086Z,6.00
2018-07-28T20:05:20.768Z,5.93
2018-07-28T20:07:51.827Z,5.60
2018-07-28T20:10:22.625Z,6.00
2018-07-28T20:12:53.333Z,6.73
2018-07-28T20:15:25.008Z,6.20
2018-07-28T20:17:55.771Z,6.20
2018-07-28T20:20:26.694Z,5.93
2018-07-28T20:22:58.143Z,6.30
2018-07-28T20:25:29.115Z,6.53
2018-07-28T20:28:00.349Z,5.57
2018-07-28T20:30:31.221Z,6.07
2018-07-28T20:33:02.798Z,6.50
2018-07-28T20:35:34.044Z,6.10
2018-07-28T20:38:06.072Z,6.50
2018-07-28T20:40:39.430Z,6.57
2018-07-28T20:43:11.560Z,6.50
2018-07-28T20:45:42.258Z,5.90
2018-07-28T20:48:13.114Z,6.60
2018-07-28T20:50:44.544Z,6.73
2018-07-28T20:53:15.239Z,6.63
2018-07-28T20:55:46.389Z,6.33
2018-07-28T20:58:18.070Z,5.50
2018-07-28T21:00:49.490Z,5.77
2018-07-28T21:03:20.276Z,6.20
2018-07-28T21:05:51.731Z,6.20
2018-07-28T21:08:22.612Z,6.17
2018-07-28T21:10:53.534Z,7.00
2018-07-28T21:13:25.132Z,7.30
2018-07-28T21:15:56.115Z,8.73
2018-07-28T21:18:26.772Z,7.30
2018-07-28T21:20:59.698Z,6.67
2018-07-28T21:23:31.399Z,5.73
2018-07-28T21:26:02.199Z,6.20
2018-07-28T21:28:33.817Z,6.20
2018-07-28T21:31:04.797Z,6.60
2018-07-28T21:33:36.279Z,6.77
2018-07-28T21:36:08.002Z,6.90
2018-07-28T21:38:39.239Z,7.27
2018-07-28T21:41:10.191Z,7.30
2018-07-28T21:43:42.916Z,7.23
2018-07-28T21:46:14.476Z,7.43
2018-07-28T21:48:45.214Z,7.93
2018-07-28T21:51:15.854Z,8.67
2018-07-28T21:53:46.703Z,8.53
2018-07-28T21:56:21.305Z,8.57
2018-07-28T21:58:55.576Z,7.03
2018-07-28T22:01:27.025Z,7.47
2018-07-28T22:03:57.724Z,5.67
2018-07-28T22:06:28.394Z,6.03
2018-07-28T22:08:59.103Z,5.23
2018-07-28T22:11:30.006Z,6.03
2018-07-28T22:14:00.154Z,7.20
2018-07-28T22:16:31.265Z,6.83
2018-07-28T22:19:02.361Z,5.93
2018-07-28T22:21:33.435Z,5.67
2018-07-28T22:24:05.032Z,6.60
2018-07-28T22:26:36.006Z,5.43
2018-07-28T22:29:07.350Z,7.03
2018-07-28T22:31:38.959Z,5.50
2018-07-28T22:34:11.157Z,5.40
2018-07-28T22:36:42.558Z,5.70
2018-07-28T22:39:13.563Z,5.10
2018-07-28T22:41:44.652Z,5.53
2018-07-28T22:44:16.486Z,5.80
2018-07-28T22:46:47.949Z,6.40
2018-07-28T22:49:20.260Z,7.80
2018-07-28T22:51:51.062Z,7.80
2018-07-28T22:54:22.311Z,7.77
2018-07-28T22:56:53.498Z,6.67
2018-07-28T22:59:25.530Z,7.57
2018-07-28T23:01:56.892Z,8.00
2018-07-28T23:04:28.670Z,7.50
2018-07-28T23:07:00.324Z,8.43
2018-07-28T23:09:31.488Z,8.13
2018-07-28T23:12:02.886Z,7.70
2018-07-28T23:14:33.736Z,6.80
2018-07-28T23:17:04.702Z,7.07
2018-07-28T23:19:35.698Z,7.60
2018-07-28T23:22:06.193Z,7.03
2018-07-28T23:24:37.563Z,7.97
2018-07-28T23:27:09.082Z,7.97
2018-07-28T23:29:39.990Z,7.80
2018-07-28T23:32:10.785Z,8.47
2018-07-28T23:34:41.736Z,8.37
2018-07-28T23:37:12.150Z,6.47
2018-07-28T23:39:42.964Z,5.93
2018-07-28T23:42:13.596Z,6.40
2018-07-28T23:44:44.313Z,6.00
2018-07-28T23:47:15.134Z,6.40
2018-07-28T23:49:45.953Z,5.00
2018-07-28T23:52:17.536Z,5.73
2018-07-28T23:54:49.736Z,5.13
2018-07-28T23:57:20.513Z,5.10
2018-07-28T23:59:51.200Z,5.60
